Time;durP1;ratioP1;P1;durP2;ratioP2;P2;SDS_P1;SDS_P2;PMS_P1;PMS_P2;Temp;Humidity;BMP_temperature;BMP_pressure;BME280_temperature;BME280_humidity;BME280_pressure;Samples;Min_cycle;Max_cycle;Signal;HPM_P1;HPM_P2
2022/08/15 18:12:11;;;;;;;3.55;2.30;;;22.90;71.70;;;;;;5081450;27;20417;-66
2022/08/15 18:14:37;;;;;;;3.00;1.90;;;22.40;74.20;;;;;;5056951;28;20078;-67
2022/08/15 18:17:18;;;;;;;7.10;2.08;;;22.30;74.50;;;;;;5073617;28;20285;-67
2022/08/15 18:20:09;;;;;;;4.10;1.95;;;22.30;74.60;;;;;;5082480;28;20094;-65
2022/08/15 18:22:36;;;;;;;2.58;1.90;;;22.30;74.50;;;;;;5085262;28;20031;-66
2022/08/15 18:25:22;;;;;;;3.00;2.03;;;22.30;74.50;;;;;;5087077;28;20024;-66
2022/08/15 18:27:48;;;;;;;5.30;2.00;;;22.30;74.40;;;;;;5086618;28;20103;-67
2022/08/15 18:30:27;;;;;;;4.70;1.90;;;22.30;74.40;;;;;;5086676;28;20099;-66
2022/08/15 18:35:37;;;;;;;5.05;3.08;;;22.20;74.60;;;;;;5045113;28;20053;-68
2022/08/15 18:38:19;;;;;;;7.05;3.42;;;22.30;75.50;;;;;;5046496;28;20048;-69
2022/08/15 18:41:06;;;;;;;9.65;5.25;;;22.20;74.70;;;;;;5046258;28;20029;-69
2022/08/15 18:43:41;;;;;;;6.57;3.85;;;22.20;75.00;;;;;;5046276;28;20049;-68
2022/08/15 18:46:18;;;;;;;6.10;3.28;;;22.20;74.90;;;;;;5046111;28;20025;-69
2022/08/15 18:48:55;;;;;;;4.57;3.13;;;22.20;74.80;;;;;;5044575;28;20030;-69
2022/08/15 18:51:27;;;;;;;5.15;2.90;;;22.20;74.80;;;;;;5046053;28;20071;-67
2022/08/15 18:54:10;;;;;;;6.43;2.83;;;22.20;74.90;;;;;;5028653;28;20418;-67
2022/08/15 18:56:47;;;;;;;5.45;2.83;;;22.20;74.20;;;;;;5046396;28;20025;-67
2022/08/15 18:59:24;;;;;;;4.40;2.45;;;22.20;73.40;;;;;;5028064;28;20079;-67
2022/08/15 19:01:54;;;;;;;4.35;2.17;;;22.20;73.00;;;;;;5046223;28;20033;-67
2022/08/15 19:04:36;;;;;;;7.15;2.63;;;22.20;72.50;;;;;;5045180;28;20029;-67
2022/08/15 19:07:28;;;;;;;3.20;2.30;;;22.20;72.30;;;;;;5046231;28;20057;-67
2022/08/15 19:10:01;;;;;;;4.65;2.38;;;22.20;72.10;;;;;;5043157;28;20049;-67
2022/08/15 19:12:35;;;;;;;2.25;2.00;;;22.20;71.90;;;;;;5018107;28;20037;-67
2022/08/15 19:15:11;;;;;;;3.50;2.00;;;22.20;71.90;;;;;;5031948;28;20128;-67
2022/08/15 19:17:41;;;;;;;2.55;2.05;;;22.20;71.70;;;;;;5031254;28;20056;-68
2022/08/15 19:20:12;;;;;;;5.18;2.40;;;22.10;71.60;;;;;;5032153;28;20034;-67
2022/08/15 19:22:38;;;;;;;3.10;2.33;;;22.10;71.60;;;;;;5032091;28;20025;-67
2022/08/15 19:25:06;;;;;;;5.88;2.38;;;22.10;71.50;;;;;;5032850;28;20087;-67
2022/08/15 19:27:57;;;;;;;4.55;2.60;;;22.10;71.40;;;;;;5032840;28;20052;-67
2022/08/15 19:30:26;;;;;;;4.47;2.60;;;22.10;71.40;;;;;;5031538;28;20113;-67
2022/08/15 19:33:09;;;;;;;6.18;2.53;;;22.10;71.40;;;;;;5030827;28;20033;-67
2022/08/15 19:35:49;;;;;;;4.38;2.83;;;22.10;71.30;;;;;;5032418;28;20041;-67
2022/08/15 19:38:25;;;;;;;8.32;3.03;;;22.10;71.20;;;;;;5032659;28;20036;-67
2022/08/15 19:41:32;;;;;;;5.75;2.67;;;22.10;71.30;;;;;;5031402;28;20045;-67
2022/08/15 19:44:29;;;;;;;5.30;2.92;;;22.10;71.20;;;;;;5032356;28;20025;-67
2022/08/15 19:46:58;;;;;;;4.95;3.38;;;22.10;71.30;;;;;;5031709;28;20022;-68
2022/08/15 19:52:34;;;;;;;5.82;2.72;;;22.10;71.20;;;;;;5030963;28;20279;-68
2022/08/15 19:55:08;;;;;;;7.50;3.33;;;22.00;71.20;;;;;;5031231;28;20030;-67
2022/08/15 19:57:45;;;;;;;5.90;3.15;;;22.00;71.20;;;;;;5010869;28;20049;-67
2022/08/15 20:00:16;;;;;;;5.55;3.80;;;22.00;71.30;;;;;;5012990;28;20163;-68
2022/08/15 20:03:02;;;;;;;5.05;3.60;;;22.00;71.30;;;;;;5009919;28;20029;-68
2022/08/15 20:06:02;;;;;;;4.30;2.88;;;22.00;71.30;;;;;;5029598;28;20025;-68
2022/08/15 20:08:40;;;;;;;;;;;22.00;71.30;;;;;;5025855;28;20124;-68
2022/08/15 20:11:48;;;;;;;5.45;3.05;;;22.00;71.30;;;;;;5027521;28;19913;-67
2022/08/15 20:14:38;;;;;;;3.63;2.80;;;22.00;71.40;;;;;;5023341;28;20048;-67
2022/08/15 20:17:29;;;;;;;4.20;2.80;;;21.90;71.40;;;;;;5028735;28;20022;-68
2022/08/15 20:20:26;;;;;;;11.95;3.00;;;21.90;71.40;;;;;;5028791;28;20124;-68
2022/08/15 20:23:12;;;;;;;6.88;2.88;;;21.90;71.40;;;;;;4987856;28;20049;-68
2022/08/15 20:25:44;;;;;;;5.40;2.55;;;21.90;71.40;;;;;;4988382;28;20026;-67
2022/08/15 20:28:12;;;;;;;6.70;2.97;;;21.90;71.40;;;;;;4988281;28;20034;-67
2022/08/15 20:30:45;;;;;;;4.13;2.78;;;21.90;71.40;;;;;;4986420;28;20549;-68
2022/08/15 20:33:16;;;;;;;4.75;2.83;;;21.90;71.40;;;;;;4982119;28;20255;-68
2022/08/15 20:35:47;;;;;;;5.03;3.28;;;21.90;71.50;;;;;;4968122;28;20542;-67
2022/08/15 20:38:20;;;;;;;5.13;3.00;;;21.90;71.50;;;;;;4968354;28;20615;-67
2022/08/15 20:41:08;;;;;;;7.70;2.60;;;21.90;71.50;;;;;;4950010;28;20043;-67
2022/08/15 20:43:49;;;;;;;7.50;3.35;;;21.90;71.50;;;;;;4968687;28;20039;-67
2022/08/15 20:46:31;;;;;;;5.53;3.35;;;21.90;71.60;;;;;;4969649;28;20094;-67
2022/08/15 20:49:05;;;;;;;4.28;3.20;;;21.90;71.60;;;;;;4968370;28;20042;-68
2022/08/15 20:51:37;;;;;;;5.15;3.20;;;21.80;71.60;;;;;;4968682;28;20109;-68
2022/08/15 20:54:04;;;;;;;7.18;3.33;;;21.90;71.70;;;;;;4953645;28;20334;-68
2022/08/15 20:56:30;;;;;;;5.07;3.10;;;21.80;71.60;;;;;;4969387;28;20031;-67
2022/08/15 20:58:56;;;;;;;4.97;3.08;;;21.80;71.60;;;;;;4966866;28;20056;-67
2022/08/15 21:01:25;;;;;;;5.72;2.80;;;21.80;71.60;;;;;;5029620;28;20029;-67
2022/08/15 21:03:58;;;;;;;8.93;3.15;;;21.80;71.60;;;;;;5029750;28;20026;-67
2022/08/15 21:06:43;;;;;;;5.05;2.90;;;21.80;71.70;;;;;;5030346;28;20033;-68
2022/08/15 21:09:12;;;;;;;7.88;3.45;;;21.80;71.70;;;;;;5030613;28;20053;-68
2022/08/15 21:11:49;;;;;;;4.72;3.05;;;21.80;71.70;;;;;;5029454;28;20050;-69
2022/08/15 21:14:44;;;;;;;5.50;3.15;;;21.80;71.80;;;;;;5030572;28;20412;-67
2022/08/15 21:17:54;;;;;;;6.38;2.85;;;21.80;71.80;;;;;;5030552;28;20022;-68
2022/08/15 21:20:46;;;;;;;4.80;2.85;;;21.80;71.80;;;;;;5011441;28;20037;-67
2022/08/15 21:23:14;;;;;;;7.57;3.22;;;21.80;71.80;;;;;;5030801;28;20025;-68
2022/08/15 21:26:00;;;;;;;6.40;3.20;;;21.80;71.80;;;;;;5030554;28;20017;-68
2022/08/15 21:28:26;;;;;;;7.97;3.05;;;21.80;71.80;;;;;;5030087;28;20520;-68
2022/08/15 21:31:15;;;;;;;5.30;3.20;;;21.80;71.80;;;;;;5029882;28;20021;-67
2022/08/15 21:33:43;;;;;;;5.65;2.95;;;21.80;71.80;;;;;;5028987;28;20033;-68
2022/08/15 21:36:20;;;;;;;5.55;3.05;;;21.80;71.80;;;;;;5030067;28;20030;-68
2022/08/15 21:39:04;;;;;;;3.90;3.05;;;21.80;71.80;;;;;;5029928;28;20029;-68
2022/08/15 21:41:41;;;;;;;8.98;3.45;;;21.80;71.80;;;;;;5029731;28;20041;-68
2022/08/15 21:44:26;;;;;;;7.90;3.30;;;21.80;71.80;;;;;;5012341;28;20029;-68
2022/08/15 21:46:54;;;;;;;4.93;3.47;;;21.80;71.80;;;;;;5011776;28;20025;-68
2022/08/15 21:49:32;;;;;;;5.45;3.47;;;21.80;71.80;;;;;;5028428;28;20466;-68
2022/08/15 21:52:10;;;;;;;8.52;3.33;;;21.70;71.80;;;;;;5029335;28;20159;-68
2022/08/15 21:54:50;;;;;;;6.63;3.42;;;21.70;71.80;;;;;;5012272;28;20030;-67
2022/08/15 21:58:01;;;;;;;5.18;3.05;;;21.80;71.80;;;;;;5029496;28;20032;-67
2022/08/15 22:00:34;;;;;;;4.00;3.15;;;21.70;71.70;;;;;;5029768;28;20071;-67
2022/08/15 22:03:09;;;;;;;6.47;3.30;;;21.80;71.80;;;;;;5029325;28;20022;-68
2022/08/15 22:05:46;;;;;;;6.40;3.30;;;21.70;71.80;;;;;;5011131;28;20398;-68
2022/08/15 22:08:27;;;;;;;4.60;2.90;;;21.70;71.80;;;;;;5029641;28;20064;-67
2022/08/15 22:10:59;;;;;;;6.25;3.53;;;21.70;71.80;;;;;;5010814;28;20433;-68
2022/08/15 22:13:25;;;;;;;5.65;3.08;;;21.70;71.80;;;;;;5029865;28;20057;-68
2022/08/15 22:15:52;;;;;;;6.38;3.35;;;21.70;71.80;;;;;;5029515;28;20052;-68
2022/08/15 22:18:19;;;;;;;8.35;3.10;;;21.70;71.80;;;;;;5028856;28;20112;-68
2022/08/15 22:20:45;;;;;;;4.70;3.33;;;21.70;71.80;;;;;;5028210;28;20071;-68
2022/08/15 22:23:12;;;;;;;4.88;3.20;;;21.70;71.80;;;;;;5011980;28;20039;-67
2022/08/15 22:25:45;;;;;;;5.68;2.92;;;21.70;71.80;;;;;;5029546;28;20104;-67
2022/08/15 22:28:15;;;;;;;7.55;3.78;;;21.60;71.70;;;;;;5029793;28;20021;-68
2022/08/15 22:30:43;;;;;;;11.60;2.53;;;21.60;71.70;;;;;;5028646;28;20410;-68
2022/08/15 22:33:10;;;;;;;4.65;2.60;;;21.60;71.70;;;;;;5029152;28;20025;-68
2022/08/15 22:35:36;;;;;;;3.20;2.60;;;21.60;71.80;;;;;;5028486;28;20377;-67
2022/08/15 22:38:02;;;;;;;4.32;2.53;;;21.60;71.80;;;;;;5029420;28;20342;-67
2022/08/15 22:40:30;;;;;;;4.05;2.75;;;21.60;71.80;;;;;;5029139;28;20256;-67
2022/08/15 22:43:03;;;;;;;4.15;2.58;;;21.60;71.80;;;;;;5028899;28;20028;-67
2022/08/15 22:45:33;;;;;;;6.15;2.72;;;21.60;71.80;;;;;;5011384;28;20032;-68
2022/08/15 22:47:59;;;;;;;4.20;3.00;;;21.60;71.80;;;;;;5014225;28;20030;-67
2022/08/15 22:50:28;;;;;;;10.70;3.63;;;21.60;71.80;;;;;;5032209;28;20048;-67
2022/08/15 22:52:56;;;;;;;3.83;2.92;;;21.60;71.80;;;;;;5014594;28;20026;-67
2022/08/15 22:55:39;;;;;;;4.05;3.15;;;21.60;71.90;;;;;;5015342;28;20029;-67
2022/08/15 22:58:08;;;;;;;4.70;3.55;;;21.60;71.90;;;;;;5032889;28;20076;-68
2022/08/15 23:00:41;;;;;;;4.63;2.97;;;21.60;71.90;;;;;;5032966;28;20052;-67
2022/08/15 23:03:08;;;;;;;5.50;2.90;;;21.60;71.90;;;;;;5014167;28;20025;-67
2022/08/15 23:05:38;;;;;;;4.28;2.75;;;21.50;71.80;;;;;;5032024;28;20565;-67
2022/08/15 23:08:26;;;;;;;9.68;2.70;;;21.50;71.80;;;;;;5032941;28;20044;-68
2022/08/15 23:11:05;;;;;;;6.05;2.80;;;21.50;71.80;;;;;;5032489;28;20033;-68
2022/08/15 23:13:42;;;;;;;6.32;2.88;;;21.50;71.80;;;;;;5014925;28;20032;-68
2022/08/15 23:16:13;;;;;;;3.35;2.33;;;21.50;71.80;;;;;;5032979;28;20378;-67
2022/08/15 23:18:43;;;;;;;3.55;2.42;;;21.50;71.90;;;;;;5032150;28;20068;-68
2022/08/15 23:21:10;;;;;;;6.28;2.90;;;21.50;71.80;;;;;;5030941;28;20037;-68
2022/08/15 23:23:52;;;;;;;5.72;2.53;;;21.50;71.80;;;;;;5032644;28;20099;-67
2022/08/15 23:26:19;;;;;;;4.30;2.38;;;21.50;71.90;;;;;;5032336;28;20025;-67
2022/08/15 23:28:50;;;;;;;5.90;2.85;;;21.50;71.90;;;;;;5014889;28;20033;-68
2022/08/15 23:31:19;;;;;;;5.57;2.10;;;21.50;71.90;;;;;;5031168;28;20030;-67
2022/08/15 23:33:49;;;;;;;4.00;2.58;;;21.50;71.80;;;;;;5014363;28;20040;-68
2022/08/15 23:36:26;;;;;;;4.88;3.05;;;21.50;71.90;;;;;;5031283;28;20044;-67
2022/08/15 23:38:52;;;;;;;3.40;2.30;;;21.50;72.00;;;;;;5032312;28;20026;-67
2022/08/15 23:41:31;;;;;;;7.07;3.47;;;21.50;72.00;;;;;;5030513;28;20482;-67
2022/08/15 23:43:58;;;;;;;4.07;2.95;;;21.40;71.90;;;;;;5032337;28;20029;-68
2022/08/15 23:46:24;;;;;;;5.70;3.03;;;21.40;71.80;;;;;;5014486;28;20026;-67
2022/08/15 23:48:51;;;;;;;6.15;2.75;;;21.50;71.90;;;;;;5032230;28;20031;-68
2022/08/15 23:51:17;;;;;;;5.20;3.47;;;21.50;71.90;;;;;;5029834;28;20040;-67
2022/08/15 23:53:43;;;;;;;4.90;3.20;;;21.40;71.80;;;;;;5032196;28;20049;-68
2022/08/15 23:56:09;;;;;;;8.15;3.22;;;21.40;71.90;;;;;;5014169;28;20021;-67
2022/08/15 23:58:34;;;;;;;5.40;3.25;;;21.40;71.90;;;;;;5031577;28;20025;-67
